createdAt,value
2022-10-06T00:01:04.994Z,5.97
2022-10-06T00:03:31.744Z,3.85
2022-10-06T00:06:00.887Z,2.75
2022-10-06T00:08:27.849Z,5.72
2022-10-06T00:10:56.230Z,2.30
2022-10-06T00:13:23.965Z,3.20
2022-10-06T00:15:50.695Z,2.72
2022-10-06T00:18:17.336Z,7.45
2022-10-06T00:20:44.115Z,2.45
2022-10-06T00:23:10.809Z,2.90
2022-10-06T00:25:37.438Z,4.30
2022-10-06T00:28:04.076Z,7.63
2022-10-06T00:30:31.228Z,5.13
2022-10-06T00:33:00.692Z,3.10
2022-10-06T00:35:31.049Z,4.07
2022-10-06T00:37:57.793Z,2.95
2022-10-06T00:40:24.438Z,5.47
2022-10-06T00:42:53.568Z,5.15
2022-10-06T00:45:37.720Z,4.88
2022-10-06T00:48:11.488Z,3.85
2022-10-06T00:50:38.085Z,2.58
2022-10-06T00:53:04.737Z,3.78
2022-10-06T00:55:31.457Z,2.35
2022-10-06T00:57:58.766Z,2.33
2022-10-06T01:00:25.330Z,4.63
2022-10-06T01:02:57.237Z,2.67
2022-10-06T01:05:33.961Z,2.53
2022-10-06T01:08:00.586Z,3.25
2022-10-06T01:10:27.210Z,2.47
2022-10-06T01:12:53.867Z,2.17
2022-10-06T01:15:21.440Z,3.00
2022-10-06T01:18:06.198Z,3.00
2022-10-06T01:20:32.805Z,2.58
2022-10-06T01:23:01.993Z,2.20
2022-10-06T01:25:28.575Z,2.35
2022-10-06T01:27:55.297Z,2.90
2022-10-06T01:30:27.493Z,7.57
2022-10-06T01:32:54.090Z,2.00
2022-10-06T01:35:20.680Z,2.85
2022-10-06T01:37:47.269Z,2.75
2022-10-06T01:40:13.967Z,2.13
2022-10-06T01:42:40.585Z,1.80
2022-10-06T01:45:07.646Z,5.28
2022-10-06T01:47:34.520Z,5.20
2022-10-06T01:50:01.134Z,3.40
2022-10-06T01:52:27.775Z,1.98
2022-10-06T01:54:54.622Z,2.60
2022-10-06T01:57:21.353Z,2.92
2022-10-06T01:59:52.634Z,4.57
2022-10-06T02:02:21.186Z,7.20
2022-10-06T02:04:47.797Z,2.17
2022-10-06T02:07:14.433Z,3.13
2022-10-06T02:09:41.126Z,2.22
2022-10-06T02:12:07.760Z,5.43
2022-10-06T02:14:34.688Z,4.28
2022-10-06T02:17:01.357Z,2.40
2022-10-06T02:19:27.987Z,3.72
2022-10-06T02:21:54.682Z,3.53
2022-10-06T02:24:21.320Z,2.95
2022-10-06T02:26:47.952Z,3.88
2022-10-06T02:29:14.615Z,4.72
2022-10-06T02:31:41.234Z,5.35
2022-10-06T02:34:07.838Z,5.43
2022-10-06T02:36:34.393Z,3.22
2022-10-06T02:39:00.968Z,3.95
2022-10-06T02:41:27.576Z,2.40
2022-10-06T02:43:55.243Z,2.72
2022-10-06T02:46:22.256Z,2.20
2022-10-06T02:48:48.935Z,3.28
2022-10-06T02:51:17.023Z,2.13
2022-10-06T02:53:44.312Z,2.47
2022-10-06T02:56:16.029Z,3.20
2022-10-06T02:58:43.079Z,3.17
2022-10-06T03:01:11.498Z,5.07
2022-10-06T03:03:38.284Z,4.32
2022-10-06T03:06:21.604Z,2.60
2022-10-06T03:08:58.492Z,3.53
2022-10-06T03:11:26.848Z,2.38
2022-10-06T03:13:53.529Z,2.38
2022-10-06T03:16:22.191Z,5.35
2022-10-06T03:18:49.967Z,9.02
2022-10-06T03:21:17.545Z,7.22
2022-10-06T03:23:44.348Z,14.57
2022-10-06T03:26:11.551Z,14.00
2022-10-06T03:28:40.005Z,8.20
2022-10-06T03:31:06.867Z,11.20
2022-10-06T03:33:34.608Z,6.15
2022-10-06T03:36:03.709Z,5.05
2022-10-06T03:38:32.178Z,4.70
2022-10-06T03:41:06.288Z,6.88
2022-10-06T03:43:33.395Z,14.45
2022-10-06T03:46:01.031Z,11.38
2022-10-06T03:48:28.988Z,11.93
2022-10-06T03:50:57.936Z,13.00
2022-10-06T03:53:27.803Z,7.95
2022-10-06T03:56:16.390Z,8.25
2022-10-06T03:58:45.281Z,6.43
2022-10-06T04:01:19.134Z,5.15
2022-10-06T04:03:47.812Z,7.03
2022-10-06T04:06:17.348Z,7.00
2022-10-06T04:08:45.130Z,6.72
2022-10-06T04:11:15.142Z,6.50
2022-10-06T04:13:42.540Z,7.93
2022-10-06T04:16:11.041Z,8.32
2022-10-06T04:18:38.135Z,9.75
2022-10-06T04:21:05.063Z,10.48
2022-10-06T04:23:32.066Z,9.32
2022-10-06T04:25:59.856Z,8.90
2022-10-06T04:28:26.811Z,4.93
2022-10-06T04:30:58.804Z,5.55
2022-10-06T04:33:25.444Z,5.72
2022-10-06T04:36:00.505Z,5.85
2022-10-06T04:38:28.799Z,2.70
2022-10-06T04:40:57.475Z,4.45
2022-10-06T04:43:24.975Z,3.83
2022-10-06T04:45:59.460Z,5.97
2022-10-06T04:48:27.842Z,4.72
2022-10-06T04:50:59.301Z,5.20
2022-10-06T04:53:26.074Z,5.55
2022-10-06T04:56:05.708Z,4.88
2022-10-06T04:58:34.697Z,4.53
2022-10-06T05:01:01.498Z,5.65
2022-10-06T05:03:29.001Z,3.55
2022-10-06T05:06:13.068Z,5.85
2022-10-06T05:08:39.965Z,3.35
2022-10-06T05:11:08.691Z,4.32
2022-10-06T05:13:37.119Z,4.28
2022-10-06T05:16:05.270Z,5.45
2022-10-06T05:18:32.249Z,3.45
2022-10-06T05:21:05.776Z,5.95
2022-10-06T05:23:34.777Z,7.07
2022-10-06T05:26:01.591Z,5.13
2022-10-06T05:28:29.883Z,6.78
2022-10-06T05:31:00.710Z,2.40
2022-10-06T05:33:28.619Z,5.40
2022-10-06T05:35:56.807Z,9.07
2022-10-06T05:38:23.538Z,7.70
2022-10-06T05:40:50.289Z,6.03
2022-10-06T05:43:17.366Z,7.85
2022-10-06T05:46:00.351Z,8.98
2022-10-06T05:51:02.985Z,8.27
2022-10-06T05:53:30.122Z,5.90
2022-10-06T05:56:07.904Z,5.43
2022-10-06T05:58:35.475Z,5.80
2022-10-06T06:01:19.231Z,7.80
2022-10-06T06:03:48.874Z,6.78
2022-10-06T06:06:19.076Z,7.70
2022-10-06T06:08:46.006Z,13.65
2022-10-06T06:11:12.794Z,2.78
2022-10-06T06:13:39.383Z,6.80
2022-10-06T06:16:06.778Z,9.15
2022-10-06T06:18:34.303Z,6.90
2022-10-06T06:21:02.266Z,7.65
2022-10-06T06:23:34.457Z,7.78
2022-10-06T06:26:03.860Z,10.23
2022-10-06T06:28:31.204Z,7.53
2022-10-06T06:31:08.219Z,5.93
2022-10-06T06:33:37.647Z,7.53
2022-10-06T06:36:21.173Z,5.72
2022-10-06T06:38:51.944Z,5.50
2022-10-06T06:41:22.640Z,6.68
2022-10-06T06:43:49.736Z,6.97
2022-10-06T06:46:17.528Z,4.10
2022-10-06T06:48:45.356Z,8.57
2022-10-06T06:51:12.089Z,8.02
2022-10-06T06:53:40.189Z,3.90
2022-10-06T06:56:08.290Z,5.55
2022-10-06T06:58:35.627Z,8.07
2022-10-06T07:01:14.082Z,6.53
2022-10-06T07:03:57.092Z,4.70
2022-10-06T07:06:28.138Z,4.07
2022-10-06T07:08:55.926Z,4.18
2022-10-06T07:11:24.615Z,5.78
2022-10-06T07:13:53.301Z,3.95
2022-10-06T07:16:40.311Z,7.85
2022-10-06T07:19:27.265Z,4.65
2022-10-06T07:22:16.130Z,5.32
2022-10-06T07:25:03.219Z,11.57
2022-10-06T07:27:30.226Z,6.75
2022-10-06T07:29:57.410Z,5.40
2022-10-06T07:32:25.362Z,7.03
2022-10-06T07:34:52.542Z,2.60
2022-10-06T07:37:19.557Z,13.25
2022-10-06T07:39:49.515Z,3.97
2022-10-06T07:42:17.571Z,4.70
2022-10-06T07:45:04.889Z,3.80
2022-10-06T07:47:32.508Z,3.25
2022-10-06T07:49:59.263Z,7.78
2022-10-06T07:52:28.747Z,2.88
2022-10-06T07:54:56.443Z,2.78
2022-10-06T07:57:23.403Z,7.68
2022-10-06T07:59:50.564Z,5.30
2022-10-06T08:02:19.192Z,9.40
2022-10-06T08:04:45.983Z,6.35
2022-10-06T08:07:12.706Z,4.47
2022-10-06T08:09:39.539Z,4.63
2022-10-06T08:12:26.145Z,6.85
2022-10-06T08:14:53.101Z,7.28
2022-10-06T08:17:19.998Z,4.65
2022-10-06T08:19:47.894Z,7.53
2022-10-06T08:22:15.874Z,4.00
2022-10-06T08:25:04.292Z,3.30
2022-10-06T08:27:29.153Z,4.55
2022-10-06T08:29:56.143Z,5.68
2022-10-06T08:32:23.277Z,7.18
2022-10-06T08:34:49.969Z,6.18
2022-10-06T08:37:20.131Z,5.88
2022-10-06T08:39:47.001Z,2.08
2022-10-06T08:42:18.463Z,3.17
2022-10-06T08:44:47.518Z,3.15
2022-10-06T08:47:19.858Z,3.55
2022-10-06T08:49:47.560Z,3.70
2022-10-06T08:52:36.522Z,4.30
2022-10-06T08:55:14.039Z,6.40
2022-10-06T08:58:18.490Z,2.22
2022-10-06T09:00:45.133Z,5.78
2022-10-06T09:03:23.891Z,3.45
2022-10-06T09:05:54.687Z,12.85
2022-10-06T09:08:44.758Z,4.22
2022-10-06T09:11:53.585Z,5.70
2022-10-06T09:14:24.368Z,2.20
2022-10-06T09:16:54.124Z,7.50
2022-10-06T09:19:40.762Z,5.80
2022-10-06T09:22:15.560Z,2.72
2022-10-06T09:24:47.240Z,2.95
2022-10-06T09:27:19.010Z,3.65
2022-10-06T09:29:48.539Z,5.30
2022-10-06T09:32:16.778Z,3.90
2022-10-06T09:34:55.893Z,5.65
2022-10-06T09:37:22.828Z,4.43
2022-10-06T09:39:50.854Z,5.63
2022-10-06T09:42:24.579Z,3.35
2022-10-06T09:47:39.603Z,8.02
2022-10-06T09:53:04.263Z,3.95
2022-10-06T09:58:23.036Z,4.32
2022-10-06T10:01:09.985Z,3.95
2022-10-06T10:04:19.422Z,9.15
2022-10-06T10:06:47.430Z,4.13
2022-10-06T10:12:22.714Z,8.73
2022-10-06T10:14:49.321Z,4.40
2022-10-06T10:17:20.003Z,2.47
2022-10-06T10:19:53.007Z,6.15
2022-10-06T10:22:24.508Z,11.20
2022-10-06T10:25:18.337Z,3.13
2022-10-06T10:30:47.524Z,6.45
2022-10-06T10:33:18.118Z,4.15
2022-10-06T10:35:46.432Z,9.27
2022-10-06T10:38:21.166Z,3.33
2022-10-06T10:40:51.862Z,6.82
2022-10-06T10:43:29.665Z,4.70
2022-10-06T10:46:01.023Z,4.90
2022-10-06T10:48:38.532Z,8.40
2022-10-06T10:51:07.850Z,3.00
2022-10-06T10:53:52.595Z,3.90
2022-10-06T10:56:21.409Z,3.35
2022-10-06T10:58:49.319Z,7.82
2022-10-06T11:01:37.656Z,5.20
2022-10-06T11:04:04.274Z,4.95
2022-10-06T11:07:14.004Z,3.55
2022-10-06T11:10:06.177Z,4.97
2022-10-06T11:15:59.993Z,5.82
2022-10-06T11:18:57.386Z,9.05
2022-10-06T11:21:27.991Z,12.32
2022-10-06T11:26:48.181Z,7.13
2022-10-06T11:34:51.045Z,10.70
2022-10-06T11:37:39.915Z,18.58
2022-10-06T11:40:31.623Z,16.58
2022-10-06T11:43:06.083Z,10.80
2022-10-06T11:45:55.279Z,19.27
2022-10-06T11:48:30.181Z,4.32
2022-10-06T11:51:17.693Z,7.22
2022-10-06T11:53:44.931Z,5.07
2022-10-06T11:58:59.986Z,5.47
2022-10-06T12:04:13.689Z,4.63
2022-10-06T12:12:27.024Z,18.60
2022-10-06T12:17:55.145Z,6.10
2022-10-06T12:25:59.495Z,6.50
2022-10-06T12:28:44.561Z,3.90
2022-10-06T12:31:41.091Z,9.30
2022-10-06T12:34:47.638Z,13.13
2022-10-06T12:37:35.889Z,10.45
2022-10-06T12:40:44.087Z,9.90
2022-10-06T12:46:29.516Z,7.18
2022-10-06T12:49:22.069Z,6.70
2022-10-06T12:51:50.659Z,5.97
2022-10-06T12:54:25.140Z,7.70
2022-10-06T12:56:58.854Z,5.30
2022-10-06T12:59:35.135Z,3.53
2022-10-06T13:02:04.199Z,8.60
2022-10-06T13:07:33.027Z,4.63
2022-10-06T13:10:19.380Z,6.50
2022-10-06T13:12:47.180Z,7.88
2022-10-06T13:15:23.809Z,16.42
2022-10-06T13:18:12.159Z,5.18
2022-10-06T13:20:41.752Z,7.57
2022-10-06T13:23:18.376Z,4.70
2022-10-06T13:25:47.807Z,4.80
2022-10-06T13:28:50.274Z,5.72
2022-10-06T13:31:22.297Z,6.65
2022-10-06T13:34:06.740Z,4.70
2022-10-06T13:36:35.449Z,4.22
2022-10-06T13:39:05.964Z,5.47
2022-10-06T13:41:37.032Z,4.43
2022-10-06T13:44:14.254Z,7.68
2022-10-06T13:46:44.269Z,13.82
2022-10-06T13:49:17.083Z,6.68
2022-10-06T13:51:47.826Z,16.25
2022-10-06T13:54:41.293Z,10.93
2022-10-06T13:57:43.612Z,8.05
2022-10-06T14:00:30.591Z,4.20
2022-10-06T14:03:09.058Z,6.47
2022-10-06T14:05:41.065Z,7.40
2022-10-06T14:10:51.142Z,9.10
2022-10-06T14:13:39.717Z,6.45
2022-10-06T14:16:07.796Z,8.50
2022-10-06T14:18:40.022Z,14.15
2022-10-06T14:21:30.101Z,15.27
2022-10-06T14:23:56.845Z,11.48
2022-10-06T14:26:27.830Z,15.95
2022-10-06T14:28:54.924Z,14.50
2022-10-06T14:31:22.346Z,12.77
2022-10-06T14:33:52.167Z,11.07
2022-10-06T14:36:21.044Z,5.18
2022-10-06T14:38:48.680Z,6.22
2022-10-06T14:41:18.996Z,14.15
2022-10-06T14:43:47.641Z,5.15
2022-10-06T14:46:15.606Z,18.40
2022-10-06T14:48:42.392Z,6.20
2022-10-06T14:51:09.437Z,7.57
2022-10-06T14:53:39.311Z,11.35
2022-10-06T14:56:08.813Z,7.88
2022-10-06T14:58:38.791Z,6.35
2022-10-06T15:01:07.324Z,11.63
2022-10-06T15:03:35.454Z,9.15
2022-10-06T15:06:23.616Z,6.90
2022-10-06T15:08:51.798Z,9.70
2022-10-06T15:11:19.971Z,16.63
2022-10-06T15:13:46.992Z,9.60
2022-10-06T15:16:15.439Z,6.55
2022-10-06T15:18:42.887Z,6.47
2022-10-06T15:21:10.306Z,5.45
2022-10-06T15:23:37.771Z,8.43
2022-10-06T15:26:24.831Z,17.27
2022-10-06T15:29:06.896Z,11.90
2022-10-06T15:31:36.307Z,10.77
2022-10-06T15:34:04.078Z,20.55
2022-10-06T15:36:33.397Z,17.55
2022-10-06T15:39:03.266Z,8.23
2022-10-06T15:41:29.957Z,10.73
2022-10-06T15:43:57.301Z,10.57
2022-10-06T15:46:46.095Z,8.73
2022-10-06T15:49:15.152Z,6.80
2022-10-06T15:51:48.116Z,10.63
2022-10-06T15:54:19.329Z,7.68
2022-10-06T15:56:47.790Z,6.25
2022-10-06T15:59:15.207Z,10.93
2022-10-06T16:01:44.042Z,9.85
2022-10-06T16:04:20.094Z,6.03
2022-10-06T16:06:50.818Z,19.17
2022-10-06T16:09:18.751Z,8.82
2022-10-06T16:11:47.038Z,11.20
2022-10-06T16:14:14.270Z,8.90
2022-10-06T16:16:43.682Z,12.40
2022-10-06T16:19:10.690Z,11.30
2022-10-06T16:21:37.468Z,10.10
2022-10-06T16:24:04.148Z,7.57
2022-10-06T16:26:31.051Z,10.48
2022-10-06T16:28:57.704Z,8.27
2022-10-06T16:31:24.456Z,7.93
2022-10-06T16:33:51.170Z,10.65
2022-10-06T16:36:17.911Z,7.85
2022-10-06T16:38:44.720Z,8.98
2022-10-06T16:41:11.510Z,9.85
2022-10-06T16:43:41.858Z,4.97
2022-10-06T16:46:10.288Z,5.05
2022-10-06T16:48:38.630Z,15.80
2022-10-06T16:51:12.298Z,8.63
2022-10-06T16:53:41.958Z,7.90
2022-10-06T16:56:10.790Z,7.97
2022-10-06T16:58:38.776Z,6.88
2022-10-06T17:01:05.922Z,8.10
2022-10-06T17:03:32.674Z,5.70
2022-10-06T17:06:09.856Z,10.32
2022-10-06T17:08:37.116Z,4.47
2022-10-06T17:11:06.805Z,9.88
2022-10-06T17:13:34.369Z,6.90
2022-10-06T17:16:02.718Z,6.85
2022-10-06T17:18:29.401Z,9.45
2022-10-06T17:20:57.171Z,11.55
2022-10-06T17:23:24.365Z,6.45
2022-10-06T17:26:15.266Z,8.18
2022-10-06T17:28:42.381Z,13.35
2022-10-06T17:31:09.167Z,9.23
2022-10-06T17:33:38.265Z,7.97
2022-10-06T17:36:13.799Z,7.13
2022-10-06T17:38:42.411Z,8.00
2022-10-06T17:41:11.731Z,7.85
2022-10-06T17:43:39.706Z,10.48
2022-10-06T17:46:11.129Z,9.60
2022-10-06T17:48:37.838Z,10.32
2022-10-06T17:51:04.541Z,12.30
2022-10-06T17:53:31.215Z,11.07
2022-10-06T17:55:57.890Z,7.55
2022-10-06T17:58:24.541Z,9.40
2022-10-06T18:00:51.237Z,12.45
2022-10-06T18:03:19.154Z,9.68
2022-10-06T18:05:53.606Z,10.02
2022-10-06T18:08:23.233Z,14.73
2022-10-06T18:11:09.829Z,15.05
2022-10-06T18:13:36.501Z,11.13
2022-10-06T18:16:03.228Z,9.75
2022-10-06T18:18:31.096Z,10.68
2022-10-06T18:21:02.044Z,11.68
2022-10-06T18:23:31.111Z,11.50
2022-10-06T18:26:00.162Z,14.02
2022-10-06T18:28:28.765Z,11.95
2022-10-06T18:30:55.423Z,10.63
2022-10-06T18:36:14.282Z,11.40
2022-10-06T18:38:44.201Z,9.25
2022-10-06T18:41:14.263Z,11.48
2022-10-06T18:43:41.342Z,11.00
2022-10-06T18:46:28.122Z,13.15
2022-10-06T18:48:54.918Z,9.38
2022-10-06T18:51:24.701Z,15.70
2022-10-06T18:53:53.268Z,21.67
2022-10-06T18:56:20.505Z,10.43
2022-10-06T18:58:47.148Z,13.18
2022-10-06T19:01:14.273Z,13.70
2022-10-06T19:03:40.987Z,11.25
2022-10-06T19:06:07.660Z,9.50
2022-10-06T19:08:34.310Z,10.10
2022-10-06T19:11:23.964Z,10.07
2022-10-06T19:13:52.124Z,16.95
2022-10-06T19:16:19.801Z,10.82
2022-10-06T19:18:46.503Z,10.32
2022-10-06T19:21:13.604Z,11.80
2022-10-06T19:23:40.346Z,14.60
2022-10-06T19:26:08.720Z,10.05
2022-10-06T19:28:35.651Z,14.32
2022-10-06T19:31:06.826Z,11.07
2022-10-06T19:33:33.628Z,12.50
2022-10-06T19:36:00.419Z,11.55
2022-10-06T19:38:27.398Z,13.55
2022-10-06T19:40:54.011Z,10.68
2022-10-06T19:43:20.635Z,12.88
2022-10-06T19:46:02.283Z,10.90
2022-10-06T19:48:29.025Z,14.25
2022-10-06T19:50:55.634Z,9.15
2022-10-06T19:53:22.249Z,11.98
2022-10-06T19:55:49.974Z,13.43
2022-10-06T19:58:16.564Z,10.45
2022-10-06T20:00:43.481Z,10.45
2022-10-06T20:03:10.072Z,13.75
2022-10-06T20:05:38.244Z,10.25
2022-10-06T20:08:04.982Z,15.00
2022-10-06T20:10:32.749Z,15.02
2022-10-06T20:12:59.351Z,12.48
2022-10-06T20:15:25.903Z,16.42
2022-10-06T20:17:52.477Z,9.85
2022-10-06T20:20:20.300Z,20.23
2022-10-06T20:22:47.243Z,16.52
2022-10-06T20:25:13.857Z,13.68
2022-10-06T20:27:40.630Z,10.88
2022-10-06T20:30:07.949Z,16.02
2022-10-06T20:32:34.738Z,13.63
2022-10-06T20:35:01.837Z,13.27
2022-10-06T20:37:28.469Z,12.93
2022-10-06T20:40:15.065Z,15.63
2022-10-06T20:42:44.722Z,13.80
2022-10-06T20:45:11.326Z,14.25
2022-10-06T20:47:37.904Z,13.77
2022-10-06T20:50:04.952Z,14.93
2022-10-06T20:52:31.578Z,12.07
2022-10-06T20:54:58.175Z,16.88
2022-10-06T20:57:28.115Z,12.70
2022-10-06T20:59:57.015Z,13.25
2022-10-06T21:02:23.596Z,14.85
2022-10-06T21:04:50.204Z,10.23
2022-10-06T21:07:18.400Z,14.40
2022-10-06T21:09:48.631Z,12.52
2022-10-06T21:12:18.717Z,13.32
2022-10-06T21:14:47.392Z,14.35
2022-10-06T21:17:14.126Z,11.68
2022-10-06T21:19:40.724Z,11.68
2022-10-06T21:22:07.341Z,15.32
2022-10-06T21:24:34.011Z,14.73
2022-10-06T21:27:00.587Z,13.38
2022-10-06T21:29:27.275Z,14.55
2022-10-06T21:31:54.137Z,17.92
2022-10-06T21:34:20.712Z,12.98
2022-10-06T21:36:47.356Z,14.45
2022-10-06T21:39:13.997Z,16.15
2022-10-06T21:41:40.669Z,11.05
2022-10-06T21:44:08.670Z,8.73
2022-10-06T21:46:36.935Z,9.85
2022-10-06T21:49:05.470Z,12.27
2022-10-06T21:51:32.547Z,12.30
2022-10-06T21:53:59.461Z,14.13
2022-10-06T21:56:27.178Z,14.18
2022-10-06T21:58:55.583Z,10.05
2022-10-06T22:01:24.155Z,9.88
2022-10-06T22:03:50.952Z,9.82
2022-10-06T22:06:19.514Z,10.10
2022-10-06T22:08:46.503Z,9.60
2022-10-06T22:11:16.119Z,8.05
2022-10-06T22:13:44.356Z,16.05
2022-10-06T22:16:12.480Z,9.82
2022-10-06T22:18:39.523Z,14.10
2022-10-06T22:21:12.423Z,10.43
2022-10-06T22:23:41.120Z,10.88
2022-10-06T22:26:08.126Z,7.40
2022-10-06T22:28:34.900Z,14.77
2022-10-06T22:31:06.210Z,9.65
2022-10-06T22:33:33.130Z,11.25
2022-10-06T22:35:59.835Z,11.98
2022-10-06T22:38:26.446Z,9.20
2022-10-06T22:40:53.294Z,10.18
2022-10-06T22:43:19.922Z,9.32
2022-10-06T22:45:46.543Z,10.00
2022-10-06T22:48:13.122Z,9.23
2022-10-06T22:50:39.776Z,9.50
2022-10-06T22:53:06.358Z,7.25
2022-10-06T22:55:32.929Z,7.10
2022-10-06T22:57:59.486Z,9.15
2022-10-06T23:00:27.597Z,6.95
2022-10-06T23:02:54.741Z,5.72
2022-10-06T23:05:21.521Z,7.25
2022-10-06T23:07:48.184Z,6.90
2022-10-06T23:10:14.931Z,7.40
2022-10-06T23:12:41.537Z,6.53
2022-10-06T23:15:11.287Z,9.90
2022-10-06T23:17:38.108Z,9.35
2022-10-06T23:20:04.954Z,6.32
2022-10-06T23:22:31.531Z,11.05
2022-10-06T23:24:58.136Z,14.70
2022-10-06T23:27:25.071Z,8.15
2022-10-06T23:29:51.735Z,6.55
2022-10-06T23:32:18.302Z,6.88
2022-10-06T23:34:45.023Z,5.63
2022-10-06T23:37:11.574Z,6.68
2022-10-06T23:39:38.171Z,5.82
2022-10-06T23:42:04.893Z,6.28
2022-10-06T23:44:31.498Z,7.38
2022-10-06T23:46:58.443Z,10.38
2022-10-06T23:49:25.088Z,7.60
2022-10-06T23:51:51.647Z,10.75
2022-10-06T23:54:18.281Z,5.95
2022-10-06T23:56:44.909Z,6.68
2022-10-06T23:59:11.475Z,6.93
